sensor_id;sensor_type;location;lat;lon;timestamp;temperature;humidity
51878;SHT31;37911;51.526;11.536;2023-04-15T00:01:17;7.48;81.71
51878;SHT31;37911;51.526;11.536;2023-04-15T00:04:25;7.48;81.84
51878;SHT31;37911;51.526;11.536;2023-04-15T00:07:28;7.43;81.91
51878;SHT31;37911;51.526;11.536;2023-04-15T00:10:32;7.35;81.88
51878;SHT31;37911;51.526;11.536;2023-04-15T00:13:37;7.37;82.04
51878;SHT31;37911;51.526;11.536;2023-04-15T00:16:40;7.37;82.07
51878;SHT31;37911;51.526;11.536;2023-04-15T00:19:47;7.35;82.09
51878;SHT31;37911;51.526;11.536;2023-04-15T00:22:50;7.31;82.22
51878;SHT31;37911;51.526;11.536;2023-04-15T00:25:54;7.32;82.27
51878;SHT31;37911;51.526;11.536;2023-04-15T00:28:58;7.24;82.44
51878;SHT31;37911;51.526;11.536;2023-04-15T00:32:01;7.28;82.42
51878;SHT31;37911;51.526;11.536;2023-04-15T00:35:10;7.32;82.43
51878;SHT31;37911;51.526;11.536;2023-04-15T00:38:13;7.28;82.74
51878;SHT31;37911;51.526;11.536;2023-04-15T00:41:17;7.31;82.68
51878;SHT31;37911;51.526;11.536;2023-04-15T00:44:22;7.27;82.89
51878;SHT31;37911;51.526;11.536;2023-04-15T00:47:28;7.26;82.93
51878;SHT31;37911;51.526;11.536;2023-04-15T00:50:35;7.17;83.27
51878;SHT31;37911;51.526;11.536;2023-04-15T00:53:38;7.24;83.43
51878;SHT31;37911;51.526;11.536;2023-04-15T00:56:43;7.24;83.22
51878;SHT31;37911;51.526;11.536;2023-04-15T00:59:47;7.26;83.52
51878;SHT31;37911;51.526;11.536;2023-04-15T01:02:51;7.24;83.45
51878;SHT31;37911;51.526;11.536;2023-04-15T01:05:57;7.28;83.52
51878;SHT31;37911;51.526;11.536;2023-04-15T01:09:02;7.21;83.51
51878;SHT31;37911;51.526;11.536;2023-04-15T01:12:06;7.21;83.42
51878;SHT31;37911;51.526;11.536;2023-04-15T01:15:12;7.23;83.28
51878;SHT31;37911;51.526;11.536;2023-04-15T01:18:16;7.17;83.43
51878;SHT31;37911;51.526;11.536;2023-04-15T01:21:23;7.13;83.76
51878;SHT31;37911;51.526;11.536;2023-04-15T01:24:29;7.16;83.68
51878;SHT31;37911;51.526;11.536;2023-04-15T01:27:38;7.17;83.77
51878;SHT31;37911;51.526;11.536;2023-04-15T01:30:42;7.16;83.90
51878;SHT31;37911;51.526;11.536;2023-04-15T01:33:45;7.14;83.95
51878;SHT31;37911;51.526;11.536;2023-04-15T01:36:49;7.11;84.05
51878;SHT31;37911;51.526;11.536;2023-04-15T01:39:55;7.13;84.13
51878;SHT31;37911;51.526;11.536;2023-04-15T01:43:02;7.13;84.02
51878;SHT31;37911;51.526;11.536;2023-04-15T01:46:06;7.14;84.03
51878;SHT31;37911;51.526;11.536;2023-04-15T01:49:09;7.11;83.88
51878;SHT31;37911;51.526;11.536;2023-04-15T01:52:13;7.04;83.83
51878;SHT31;37911;51.526;11.536;2023-04-15T01:55:17;7.08;83.87
51878;SHT31;37911;51.526;11.536;2023-04-15T01:58:23;7.10;83.67
51878;SHT31;37911;51.526;11.536;2023-04-15T02:01:27;7.06;83.75
51878;SHT31;37911;51.526;11.536;2023-04-15T02:04:33;7.01;83.88
51878;SHT31;37911;51.526;11.536;2023-04-15T02:07:37;6.99;83.93
51878;SHT31;37911;51.526;11.536;2023-04-15T02:10:40;6.97;84.05
51878;SHT31;37911;51.526;11.536;2023-04-15T02:13:46;6.97;84.19
51878;SHT31;37911;51.526;11.536;2023-04-15T02:16:50;6.99;84.16
51878;SHT31;37911;51.526;11.536;2023-04-15T02:19:55;6.96;84.29
51878;SHT31;37911;51.526;11.536;2023-04-15T02:22:58;6.99;84.14
51878;SHT31;37911;51.526;11.536;2023-04-15T02:26:02;6.97;84.29
51878;SHT31;37911;51.526;11.536;2023-04-15T02:29:09;6.94;84.04
51878;SHT31;37911;51.526;11.536;2023-04-15T02:32:14;6.96;84.04
51878;SHT31;37911;51.526;11.536;2023-04-15T02:35:18;6.94;84.01
51878;SHT31;37911;51.526;11.536;2023-04-15T02:38:22;6.94;84.17
51878;SHT31;37911;51.526;11.536;2023-04-15T02:41:25;7.01;84.22
51878;SHT31;37911;51.526;11.536;2023-04-15T02:44:32;6.96;84.29
51878;SHT31;37911;51.526;11.536;2023-04-15T02:47:38;6.96;84.56
51878;SHT31;37911;51.526;11.536;2023-04-15T02:50:44;6.99;84.51
51878;SHT31;37911;51.526;11.536;2023-04-15T02:53:49;7.00;84.65
51878;SHT31;37911;51.526;11.536;2023-04-15T02:56:53;6.99;84.70
51878;SHT31;37911;51.526;11.536;2023-04-15T03:00:00;7.01;84.67
51878;SHT31;37911;51.526;11.536;2023-04-15T03:03:05;7.07;84.81
51878;SHT31;37911;51.526;11.536;2023-04-15T03:06:08;7.04;84.85
51878;SHT31;37911;51.526;11.536;2023-04-15T03:09:12;7.03;84.91
51878;SHT31;37911;51.526;11.536;2023-04-15T03:12:17;7.06;84.92
51878;SHT31;37911;51.526;11.536;2023-04-15T03:15:23;6.97;85.12
51878;SHT31;37911;51.526;11.536;2023-04-15T03:18:28;6.96;85.17
51878;SHT31;37911;51.526;11.536;2023-04-15T03:21:35;6.97;85.00
51878;SHT31;37911;51.526;11.536;2023-04-15T03:24:39;6.93;85.32
51878;SHT31;37911;51.526;11.536;2023-04-15T03:27:43;6.97;85.14
51878;SHT31;37911;51.526;11.536;2023-04-15T03:30:50;6.96;85.28
51878;SHT31;37911;51.526;11.536;2023-04-15T03:33:53;6.93;85.15
51878;SHT31;37911;51.526;11.536;2023-04-15T03:36:57;6.92;84.89
51878;SHT31;37911;51.526;11.536;2023-04-15T03:40:01;6.92;85.05
51878;SHT31;37911;51.526;11.536;2023-04-15T03:43:05;6.90;85.27
51878;SHT31;37911;51.526;11.536;2023-04-15T03:46:13;6.93;85.31
51878;SHT31;37911;51.526;11.536;2023-04-15T03:49:17;6.86;85.47
51878;SHT31;37911;51.526;11.536;2023-04-15T03:52:22;6.89;85.50
51878;SHT31;37911;51.526;11.536;2023-04-15T03:55:26;6.87;85.42
51878;SHT31;37911;51.526;11.536;2023-04-15T03:58:30;6.86;85.57
51878;SHT31;37911;51.526;11.536;2023-04-15T04:01:36;6.86;85.50
51878;SHT31;37911;51.526;11.536;2023-04-15T04:04:40;6.83;85.40
51878;SHT31;37911;51.526;11.536;2023-04-15T04:07:43;6.79;85.52
51878;SHT31;37911;51.526;11.536;2023-04-15T04:10:47;6.73;85.62
51878;SHT31;37911;51.526;11.536;2023-04-15T04:13:51;6.83;85.65
51878;SHT31;37911;51.526;11.536;2023-04-15T04:16:57;6.86;85.64
51878;SHT31;37911;51.526;11.536;2023-04-15T04:20:01;6.83;85.84
51878;SHT31;37911;51.526;11.536;2023-04-15T04:23:05;6.86;85.63
51878;SHT31;37911;51.526;11.536;2023-04-15T04:26:09;6.82;85.91
51878;SHT31;37911;51.526;11.536;2023-04-15T04:29:13;6.82;85.87
51878;SHT31;37911;51.526;11.536;2023-04-15T04:32:19;6.87;85.80
51878;SHT31;37911;51.526;11.536;2023-04-15T04:35:23;6.86;85.71
51878;SHT31;37911;51.526;11.536;2023-04-15T04:38:27;6.80;86.11
51878;SHT31;37911;51.526;11.536;2023-04-15T04:41:30;6.83;86.11
51878;SHT31;37911;51.526;11.536;2023-04-15T04:44:34;6.86;86.19
51878;SHT31;37911;51.526;11.536;2023-04-15T04:47:41;6.82;86.17
51878;SHT31;37911;51.526;11.536;2023-04-15T04:50:45;6.79;86.27
51878;SHT31;37911;51.526;11.536;2023-04-15T04:53:49;6.86;86.28
51878;SHT31;37911;51.526;11.536;2023-04-15T04:56:52;6.89;86.26
51878;SHT31;37911;51.526;11.536;2023-04-15T04:59:57;6.83;86.29
51878;SHT31;37911;51.526;11.536;2023-04-15T05:03:03;6.87;86.47
51878;SHT31;37911;51.526;11.536;2023-04-15T05:06:07;6.85;86.38
51878;SHT31;37911;51.526;11.536;2023-04-15T05:09:11;6.86;86.47
51878;SHT31;37911;51.526;11.536;2023-04-15T05:12:14;6.92;86.28
51878;SHT31;37911;51.526;11.536;2023-04-15T05:15:18;6.93;86.38
51878;SHT31;37911;51.526;11.536;2023-04-15T05:18:24;6.90;86.37
51878;SHT31;37911;51.526;11.536;2023-04-15T05:21:28;6.92;86.51
51878;SHT31;37911;51.526;11.536;2023-04-15T05:24:32;6.87;86.70
51878;SHT31;37911;51.526;11.536;2023-04-15T05:27:36;6.92;86.43
51878;SHT31;37911;51.526;11.536;2023-04-15T05:30:39;6.93;86.37
51878;SHT31;37911;51.526;11.536;2023-04-15T05:33:46;6.92;86.52
51878;SHT31;37911;51.526;11.536;2023-04-15T05:36:49;6.90;86.54
51878;SHT31;37911;51.526;11.536;2023-04-15T05:39:53;6.92;86.58
51878;SHT31;37911;51.526;11.536;2023-04-15T05:42:56;6.97;86.52
51878;SHT31;37911;51.526;11.536;2023-04-15T05:46:00;6.99;86.33
51878;SHT31;37911;51.526;11.536;2023-04-15T05:49:07;6.94;86.54
51878;SHT31;37911;51.526;11.536;2023-04-15T05:52:10;6.94;86.63
51878;SHT31;37911;51.526;11.536;2023-04-15T05:55:14;6.96;86.64
51878;SHT31;37911;51.526;11.536;2023-04-15T05:58:18;6.94;86.75
51878;SHT31;37911;51.526;11.536;2023-04-15T06:01:21;6.93;86.74
51878;SHT31;37911;51.526;11.536;2023-04-15T06:04:28;6.96;86.95
51878;SHT31;37911;51.526;11.536;2023-04-15T06:07:32;6.99;87.09
51878;SHT31;37911;51.526;11.536;2023-04-15T06:10:36;6.97;86.99
51878;SHT31;37911;51.526;11.536;2023-04-15T06:13:39;7.03;86.80
51878;SHT31;37911;51.526;11.536;2023-04-15T06:16:43;7.03;86.84
51878;SHT31;37911;51.526;11.536;2023-04-15T06:19:49;7.07;86.79
51878;SHT31;37911;51.526;11.536;2023-04-15T06:22:58;7.13;86.69
51878;SHT31;37911;51.526;11.536;2023-04-15T06:26:02;7.13;86.52
51878;SHT31;37911;51.526;11.536;2023-04-15T06:29:06;7.11;86.64
51878;SHT31;37911;51.526;11.536;2023-04-15T06:32:10;7.13;86.80
51878;SHT31;37911;51.526;11.536;2023-04-15T06:35:16;7.13;86.75
51878;SHT31;37911;51.526;11.536;2023-04-15T06:38:20;7.14;86.70
51878;SHT31;37911;51.526;11.536;2023-04-15T06:41:24;7.16;86.65
51878;SHT31;37911;51.526;11.536;2023-04-15T06:44:28;7.14;86.65
51878;SHT31;37911;51.526;11.536;2023-04-15T06:47:31;7.13;86.73
51878;SHT31;37911;51.526;11.536;2023-04-15T06:50:38;7.11;86.79
51878;SHT31;37911;51.526;11.536;2023-04-15T06:53:42;7.14;86.91
51878;SHT31;37911;51.526;11.536;2023-04-15T06:56:46;7.18;86.83
51878;SHT31;37911;51.526;11.536;2023-04-15T06:59:51;7.20;86.65
51878;SHT31;37911;51.526;11.536;2023-04-15T07:02:55;7.28;86.62
51878;SHT31;37911;51.526;11.536;2023-04-15T07:06:01;7.27;86.68
51878;SHT31;37911;51.526;11.536;2023-04-15T07:09:06;7.27;86.76
51878;SHT31;37911;51.526;11.536;2023-04-15T07:12:10;7.30;86.77
51878;SHT31;37911;51.526;11.536;2023-04-15T07:15:13;7.31;86.63
51878;SHT31;37911;51.526;11.536;2023-04-15T07:18:17;7.30;86.70
51878;SHT31;37911;51.526;11.536;2023-04-15T07:21:24;7.28;86.82
51878;SHT31;37911;51.526;11.536;2023-04-15T07:24:28;7.27;86.75
51878;SHT31;37911;51.526;11.536;2023-04-15T07:27:32;7.20;86.62
51878;SHT31;37911;51.526;11.536;2023-04-15T07:30:36;7.26;86.81
51878;SHT31;37911;51.526;11.536;2023-04-15T07:33:40;7.28;86.92
51878;SHT31;37911;51.526;11.536;2023-04-15T07:36:46;7.28;87.01
51878;SHT31;37911;51.526;11.536;2023-04-15T07:39:51;7.31;86.96
51878;SHT31;37911;51.526;11.536;2023-04-15T07:42:55;7.37;87.08
51878;SHT31;37911;51.526;11.536;2023-04-15T07:45:59;7.41;87.13
51878;SHT31;37911;51.526;11.536;2023-04-15T07:49:03;7.41;87.17
51878;SHT31;37911;51.526;11.536;2023-04-15T07:52:10;7.38;86.99
51878;SHT31;37911;51.526;11.536;2023-04-15T07:55:14;7.41;86.89
51878;SHT31;37911;51.526;11.536;2023-04-15T07:58:20;7.44;86.95
51878;SHT31;37911;51.526;11.536;2023-04-15T08:01:24;7.44;86.59
51878;SHT31;37911;51.526;11.536;2023-04-15T08:04:28;7.52;86.70
51878;SHT31;37911;51.526;11.536;2023-04-15T08:07:35;7.50;86.79
51878;SHT31;37911;51.526;11.536;2023-04-15T08:10:39;7.50;86.61
51878;SHT31;37911;51.526;11.536;2023-04-15T08:13:43;7.58;86.77
51878;SHT31;37911;51.526;11.536;2023-04-15T08:16:46;7.64;86.62
51878;SHT31;37911;51.526;11.536;2023-04-15T08:19:51;7.65;86.48
51878;SHT31;37911;51.526;11.536;2023-04-15T08:22:58;7.59;86.67
51878;SHT31;37911;51.526;11.536;2023-04-15T08:26:02;7.64;86.75
51878;SHT31;37911;51.526;11.536;2023-04-15T08:29:06;7.65;86.74
51878;SHT31;37911;51.526;11.536;2023-04-15T08:32:09;7.68;86.91
51878;SHT31;37911;51.526;11.536;2023-04-15T08:35:13;7.64;87.00
51878;SHT31;37911;51.526;11.536;2023-04-15T08:38:19;7.69;87.01
51878;SHT31;37911;51.526;11.536;2023-04-15T08:41:24;7.68;87.02
51878;SHT31;37911;51.526;11.536;2023-04-15T08:44:29;7.67;87.21
51878;SHT31;37911;51.526;11.536;2023-04-15T08:47:34;7.68;87.33
51878;SHT31;37911;51.526;11.536;2023-04-15T08:50:40;7.67;87.44
51878;SHT31;37911;51.526;11.536;2023-04-15T08:53:46;7.68;87.74
51878;SHT31;37911;51.526;11.536;2023-04-15T08:56:50;7.61;87.87
51878;SHT31;37911;51.526;11.536;2023-04-15T08:59:55;7.61;87.95
51878;SHT31;37911;51.526;11.536;2023-04-15T09:02:58;7.64;87.95
51878;SHT31;37911;51.526;11.536;2023-04-15T09:06:03;7.65;87.84
51878;SHT31;37911;51.526;11.536;2023-04-15T09:09:11;7.67;87.96
51878;SHT31;37911;51.526;11.536;2023-04-15T09:12:15;7.68;87.93
51878;SHT31;37911;51.526;11.536;2023-04-15T09:15:19;7.69;87.96
51878;SHT31;37911;51.526;11.536;2023-04-15T09:18:27;7.71;88.20
51878;SHT31;37911;51.526;11.536;2023-04-15T09:21:31;7.65;88.28
51878;SHT31;37911;51.526;11.536;2023-04-15T09:24:38;7.67;88.55
51878;SHT31;37911;51.526;11.536;2023-04-15T09:27:47;7.65;88.44
51878;SHT31;37911;51.526;11.536;2023-04-15T09:30:54;7.67;88.58
51878;SHT31;37911;51.526;11.536;2023-04-15T09:33:57;7.69;88.55
51878;SHT31;37911;51.526;11.536;2023-04-15T09:37:01;7.65;88.66
51878;SHT31;37911;51.526;11.536;2023-04-15T09:40:08;7.69;88.92
51878;SHT31;37911;51.526;11.536;2023-04-15T09:43:12;7.79;88.76
51878;SHT31;37911;51.526;11.536;2023-04-15T09:46:16;7.89;88.81
51878;SHT31;37911;51.526;11.536;2023-04-15T09:49:20;8.01;88.73
51878;SHT31;37911;51.526;11.536;2023-04-15T09:52:24;8.02;88.44
51878;SHT31;37911;51.526;11.536;2023-04-15T09:55:32;8.03;88.38
51878;SHT31;37911;51.526;11.536;2023-04-15T09:58:36;8.07;88.33
51878;SHT31;37911;51.526;11.536;2023-04-15T10:01:42;8.05;88.39
51878;SHT31;37911;51.526;11.536;2023-04-15T10:04:47;8.14;88.30
51878;SHT31;37911;51.526;11.536;2023-04-15T10:07:51;8.19;88.36
51878;SHT31;37911;51.526;11.536;2023-04-15T10:10:58;8.26;88.33
51878;SHT31;37911;51.526;11.536;2023-04-15T10:14:01;8.26;88.08
51878;SHT31;37911;51.526;11.536;2023-04-15T10:17:06;8.25;88.16
51878;SHT31;37911;51.526;11.536;2023-04-15T10:20:14;8.16;88.32
51878;SHT31;37911;51.526;11.536;2023-04-15T10:23:21;8.21;88.31
51878;SHT31;37911;51.526;11.536;2023-04-15T10:26:28;8.19;88.52
51878;SHT31;37911;51.526;11.536;2023-04-15T10:29:32;8.13;89.07
51878;SHT31;37911;51.526;11.536;2023-04-15T10:32:37;8.14;88.83
51878;SHT31;37911;51.526;11.536;2023-04-15T10:35:41;8.12;88.91
51878;SHT31;37911;51.526;11.536;2023-04-15T10:38:46;8.16;89.11
51878;SHT31;37911;51.526;11.536;2023-04-15T10:42:05;8.16;89.26
51878;SHT31;37911;51.526;11.536;2023-04-15T10:45:15;8.14;89.60
51878;SHT31;37911;51.526;11.536;2023-04-15T10:48:19;8.13;89.72
51878;SHT31;37911;51.526;11.536;2023-04-15T10:51:29;8.16;89.86
51878;SHT31;37911;51.526;11.536;2023-04-15T10:54:32;8.19;89.87
51878;SHT31;37911;51.526;11.536;2023-04-15T10:57:42;8.14;89.89
51878;SHT31;37911;51.526;11.536;2023-04-15T11:00:50;8.12;90.40
51878;SHT31;37911;51.526;11.536;2023-04-15T11:03:54;8.21;90.29
51878;SHT31;37911;51.526;11.536;2023-04-15T11:07:04;8.19;90.23
51878;SHT31;37911;51.526;11.536;2023-04-15T11:14:01;8.25;90.38
51878;SHT31;37911;51.526;11.536;2023-04-15T11:17:05;8.30;90.42
51878;SHT31;37911;51.526;11.536;2023-04-15T11:20:14;8.26;90.38
51878;SHT31;37911;51.526;11.536;2023-04-15T11:23:19;8.32;90.48
51878;SHT31;37911;51.526;11.536;2023-04-15T11:26:25;8.33;90.51
51878;SHT31;37911;51.526;11.536;2023-04-15T11:29:32;8.34;90.48
51878;SHT31;37911;51.526;11.536;2023-04-15T11:32:35;8.40;90.30
51878;SHT31;37911;51.526;11.536;2023-04-15T11:35:40;8.46;90.32
51878;SHT31;37911;51.526;11.536;2023-04-15T11:38:45;8.43;90.28
51878;SHT31;37911;51.526;11.536;2023-04-15T11:41:49;8.46;90.24
51878;SHT31;37911;51.526;11.536;2023-04-15T11:45:05;8.47;90.25
51878;SHT31;37911;51.526;11.536;2023-04-15T11:48:10;8.49;90.19
51878;SHT31;37911;51.526;11.536;2023-04-15T11:51:14;8.57;90.22
51878;SHT31;37911;51.526;11.536;2023-04-15T11:54:20;8.61;90.20
51878;SHT31;37911;51.526;11.536;2023-04-15T11:57:30;8.59;90.10
51878;SHT31;37911;51.526;11.536;2023-04-15T12:00:37;8.63;89.98
51878;SHT31;37911;51.526;11.536;2023-04-15T12:03:43;8.66;89.95
51878;SHT31;37911;51.526;11.536;2023-04-15T12:06:47;8.67;89.90
51878;SHT31;37911;51.526;11.536;2023-04-15T12:09:54;8.70;89.92
51878;SHT31;37911;51.526;11.536;2023-04-15T12:12:58;8.74;89.91
51878;SHT31;37911;51.526;11.536;2023-04-15T12:16:06;8.76;90.02
51878;SHT31;37911;51.526;11.536;2023-04-15T12:19:12;8.77;90.00
51878;SHT31;37911;51.526;11.536;2023-04-15T12:22:16;8.78;89.94
51878;SHT31;37911;51.526;11.536;2023-04-15T12:25:33;8.84;90.03
51878;SHT31;37911;51.526;11.536;2023-04-15T12:28:39;8.85;89.89
51878;SHT31;37911;51.526;11.536;2023-04-15T12:31:50;8.89;89.91
51878;SHT31;37911;51.526;11.536;2023-04-15T12:34:54;8.92;89.90
51878;SHT31;37911;51.526;11.536;2023-04-15T12:37:57;8.97;89.88
51878;SHT31;37911;51.526;11.536;2023-04-15T12:41:01;9.04;89.76
51878;SHT31;37911;51.526;11.536;2023-04-15T12:44:05;9.07;89.84
51878;SHT31;37911;51.526;11.536;2023-04-15T12:47:11;9.07;89.77
51878;SHT31;37911;51.526;11.536;2023-04-15T12:50:15;9.12;89.84
51878;SHT31;37911;51.526;11.536;2023-04-15T12:53:19;9.18;89.74
51878;SHT31;37911;51.526;11.536;2023-04-15T12:56:23;9.24;89.74
51878;SHT31;37911;51.526;11.536;2023-04-15T12:59:27;9.28;89.81
51878;SHT31;37911;51.526;11.536;2023-04-15T13:02:33;9.31;89.68
51878;SHT31;37911;51.526;11.536;2023-04-15T13:05:38;9.31;89.57
51878;SHT31;37911;51.526;11.536;2023-04-15T13:08:42;9.28;89.75
51878;SHT31;37911;51.526;11.536;2023-04-15T13:11:46;9.24;89.56
51878;SHT31;37911;51.526;11.536;2023-04-15T13:14:49;9.29;89.62
51878;SHT31;37911;51.526;11.536;2023-04-15T13:17:55;9.32;89.58
51878;SHT31;37911;51.526;11.536;2023-04-15T13:20:59;9.32;89.57
51878;SHT31;37911;51.526;11.536;2023-04-15T13:24:03;9.34;89.43
51878;SHT31;37911;51.526;11.536;2023-04-15T13:27:08;9.31;89.67
51878;SHT31;37911;51.526;11.536;2023-04-15T13:30:12;9.35;89.61
51878;SHT31;37911;51.526;11.536;2023-04-15T13:33:18;9.31;89.72
51878;SHT31;37911;51.526;11.536;2023-04-15T13:36:22;9.34;89.71
51878;SHT31;37911;51.526;11.536;2023-04-15T13:39:25;9.35;89.76
51878;SHT31;37911;51.526;11.536;2023-04-15T13:42:29;9.36;89.75
51878;SHT31;37911;51.526;11.536;2023-04-15T13:45:33;9.42;89.72
51878;SHT31;37911;51.526;11.536;2023-04-15T13:48:39;9.42;89.74
51878;SHT31;37911;51.526;11.536;2023-04-15T13:51:43;9.51;89.76
51878;SHT31;37911;51.526;11.536;2023-04-15T13:54:46;9.53;89.80
51878;SHT31;37911;51.526;11.536;2023-04-15T13:57:50;9.60;89.60
51878;SHT31;37911;51.526;11.536;2023-04-15T14:00:54;9.63;89.62
51878;SHT31;37911;51.526;11.536;2023-04-15T14:04:00;9.72;89.64
51878;SHT31;37911;51.526;11.536;2023-04-15T14:07:04;9.72;89.55
51878;SHT31;37911;51.526;11.536;2023-04-15T14:10:08;9.76;89.76
51878;SHT31;37911;51.526;11.536;2023-04-15T14:13:11;9.80;89.68
51878;SHT31;37911;51.526;11.536;2023-04-15T14:16:15;9.83;89.61
51878;SHT31;37911;51.526;11.536;2023-04-15T14:19:21;9.82;89.41
51878;SHT31;37911;51.526;11.536;2023-04-15T14:22:25;9.80;89.41
51878;SHT31;37911;51.526;11.536;2023-04-15T14:25:28;9.89;89.41
51878;SHT31;37911;51.526;11.536;2023-04-15T14:28:33;9.89;89.13
51878;SHT31;37911;51.526;11.536;2023-04-15T14:31:37;9.89;89.37
51878;SHT31;37911;51.526;11.536;2023-04-15T14:34:44;9.82;89.29
51878;SHT31;37911;51.526;11.536;2023-04-15T14:37:48;9.87;88.95
51878;SHT31;37911;51.526;11.536;2023-04-15T14:40:51;9.76;88.88
51878;SHT31;37911;51.526;11.536;2023-04-15T14:43:55;9.75;89.09
51878;SHT31;37911;51.526;11.536;2023-04-15T14:46:59;9.72;89.01
51878;SHT31;37911;51.526;11.536;2023-04-15T14:50:06;9.75;89.12
51878;SHT31;37911;51.526;11.536;2023-04-15T14:53:10;9.72;89.31
51878;SHT31;37911;51.526;11.536;2023-04-15T14:56:14;9.73;89.32
51878;SHT31;37911;51.526;11.536;2023-04-15T14:59:17;9.78;89.19
51878;SHT31;37911;51.526;11.536;2023-04-15T15:02:21;9.78;89.40
51878;SHT31;37911;51.526;11.536;2023-04-15T15:05:27;9.80;89.33
51878;SHT31;37911;51.526;11.536;2023-04-15T15:08:31;9.76;89.37
51878;SHT31;37911;51.526;11.536;2023-04-15T15:11:36;9.79;89.46
51878;SHT31;37911;51.526;11.536;2023-04-15T15:14:40;9.80;89.37
51878;SHT31;37911;51.526;11.536;2023-04-15T15:17:43;9.82;89.27
51878;SHT31;37911;51.526;11.536;2023-04-15T15:20:50;9.80;89.28
51878;SHT31;37911;51.526;11.536;2023-04-15T15:23:54;9.80;89.06
51878;SHT31;37911;51.526;11.536;2023-04-15T15:26:58;9.82;89.30
51878;SHT31;37911;51.526;11.536;2023-04-15T15:30:02;9.86;89.22
51878;SHT31;37911;51.526;11.536;2023-04-15T15:33:06;9.83;89.24
51878;SHT31;37911;51.526;11.536;2023-04-15T15:36:12;9.82;89.44
51878;SHT31;37911;51.526;11.536;2023-04-15T15:39:16;9.83;89.32
51878;SHT31;37911;51.526;11.536;2023-04-15T15:42:20;9.86;89.36
51878;SHT31;37911;51.526;11.536;2023-04-15T15:45:24;9.83;89.47
51878;SHT31;37911;51.526;11.536;2023-04-15T15:48:28;9.83;89.64
51878;SHT31;37911;51.526;11.536;2023-04-15T15:51:34;9.80;89.61
51878;SHT31;37911;51.526;11.536;2023-04-15T15:54:38;9.75;89.77
51878;SHT31;37911;51.526;11.536;2023-04-15T15:57:42;9.75;89.87
51878;SHT31;37911;51.526;11.536;2023-04-15T16:00:46;9.72;89.98
51878;SHT31;37911;51.526;11.536;2023-04-15T16:03:50;9.75;89.80
51878;SHT31;37911;51.526;11.536;2023-04-15T16:06:56;9.70;89.94
51878;SHT31;37911;51.526;11.536;2023-04-15T16:10:00;9.73;89.90
51878;SHT31;37911;51.526;11.536;2023-04-15T16:13:03;9.69;89.99
51878;SHT31;37911;51.526;11.536;2023-04-15T16:16:07;9.78;89.90
51878;SHT31;37911;51.526;11.536;2023-04-15T16:19:11;9.82;89.69
51878;SHT31;37911;51.526;11.536;2023-04-15T16:22:17;9.78;89.79
51878;SHT31;37911;51.526;11.536;2023-04-15T16:25:21;9.69;89.89
51878;SHT31;37911;51.526;11.536;2023-04-15T16:28:24;9.69;90.17
51878;SHT31;37911;51.526;11.536;2023-04-15T16:31:29;9.66;90.26
51878;SHT31;37911;51.526;11.536;2023-04-15T16:34:34;9.63;90.25
51878;SHT31;37911;51.526;11.536;2023-04-15T16:37:41;9.62;90.38
51878;SHT31;37911;51.526;11.536;2023-04-15T16:40:45;9.63;90.25
51878;SHT31;37911;51.526;11.536;2023-04-15T16:43:48;9.60;90.33
51878;SHT31;37911;51.526;11.536;2023-04-15T16:46:52;9.58;90.35
51878;SHT31;37911;51.526;11.536;2023-04-15T16:49:56;9.56;90.32
51878;SHT31;37911;51.526;11.536;2023-04-15T16:53:02;9.55;90.46
51878;SHT31;37911;51.526;11.536;2023-04-15T16:56:06;9.59;90.52
51878;SHT31;37911;51.526;11.536;2023-04-15T16:59:10;9.58;90.48
51878;SHT31;37911;51.526;11.536;2023-04-15T17:02:14;9.58;90.57
51878;SHT31;37911;51.526;11.536;2023-04-15T17:05:18;9.56;90.69
51878;SHT31;37911;51.526;11.536;2023-04-15T17:08:24;9.60;90.62
51878;SHT31;37911;51.526;11.536;2023-04-15T17:11:28;9.56;90.61
51878;SHT31;37911;51.526;11.536;2023-04-15T17:14:32;9.55;90.69
51878;SHT31;37911;51.526;11.536;2023-04-15T17:17:38;9.56;90.76
51878;SHT31;37911;51.526;11.536;2023-04-15T17:20:41;9.56;90.77
51878;SHT31;37911;51.526;11.536;2023-04-15T17:23:48;9.55;90.92
51878;SHT31;37911;51.526;11.536;2023-04-15T17:26:52;9.52;90.93
51878;SHT31;37911;51.526;11.536;2023-04-15T17:29:56;9.48;90.99
51878;SHT31;37911;51.526;11.536;2023-04-15T17:33:00;9.51;91.04
51878;SHT31;37911;51.526;11.536;2023-04-15T17:36:04;9.51;91.02
51878;SHT31;37911;51.526;11.536;2023-04-15T17:39:11;9.49;91.08
51878;SHT31;37911;51.526;11.536;2023-04-15T17:42:15;9.60;91.01
51878;SHT31;37911;51.526;11.536;2023-04-15T17:45:19;9.56;90.82
51878;SHT31;37911;51.526;11.536;2023-04-15T17:48:22;9.56;90.88
51878;SHT31;37911;51.526;11.536;2023-04-15T17:51:27;9.56;90.82
51878;SHT31;37911;51.526;11.536;2023-04-15T17:54:44;9.53;90.92
51878;SHT31;37911;51.526;11.536;2023-04-15T17:57:48;9.52;90.93
51878;SHT31;37911;51.526;11.536;2023-04-15T18:00:52;9.51;91.00
51878;SHT31;37911;51.526;11.536;2023-04-15T18:03:56;9.51;91.05
51878;SHT31;37911;51.526;11.536;2023-04-15T18:07:00;9.49;91.13
51878;SHT31;37911;51.526;11.536;2023-04-15T18:10:08;9.46;91.18
51878;SHT31;37911;51.526;11.536;2023-04-15T18:13:11;9.45;91.18
51878;SHT31;37911;51.526;11.536;2023-04-15T18:16:15;9.45;91.21
51878;SHT31;37911;51.526;11.536;2023-04-15T18:19:19;9.43;91.32
51878;SHT31;37911;51.526;11.536;2023-04-15T18:22:24;9.41;91.41
51878;SHT31;37911;51.526;11.536;2023-04-15T18:25:30;9.42;91.44
51878;SHT31;37911;51.526;11.536;2023-04-15T18:28:34;9.42;91.53
51878;SHT31;37911;51.526;11.536;2023-04-15T18:31:39;9.39;91.65
51878;SHT31;37911;51.526;11.536;2023-04-15T18:34:43;9.38;91.54
51878;SHT31;37911;51.526;11.536;2023-04-15T18:37:46;9.39;91.53
51878;SHT31;37911;51.526;11.536;2023-04-15T18:40:53;9.38;91.65
51878;SHT31;37911;51.526;11.536;2023-04-15T18:43:57;9.36;91.70
51878;SHT31;37911;51.526;11.536;2023-04-15T18:47:00;9.35;91.72
51878;SHT31;37911;51.526;11.536;2023-04-15T18:50:05;9.32;91.69
51878;SHT31;37911;51.526;11.536;2023-04-15T18:53:09;9.42;91.69
51878;SHT31;37911;51.526;11.536;2023-04-15T18:56:16;9.35;91.70
51878;SHT31;37911;51.526;11.536;2023-04-15T18:59:19;9.36;91.54
51878;SHT31;37911;51.526;11.536;2023-04-15T19:02:23;9.35;91.48
51878;SHT31;37911;51.526;11.536;2023-04-15T19:05:28;9.41;91.46
51878;SHT31;37911;51.526;11.536;2023-04-15T19:08:32;9.35;91.51
51878;SHT31;37911;51.526;11.536;2023-04-15T19:11:38;9.36;91.51
51878;SHT31;37911;51.526;11.536;2023-04-15T19:14:43;9.36;91.42
51878;SHT31;37911;51.526;11.536;2023-04-15T19:17:46;9.34;91.54
51878;SHT31;37911;51.526;11.536;2023-04-15T19:20:50;9.35;91.50
51878;SHT31;37911;51.526;11.536;2023-04-15T19:23:55;9.35;91.46
51878;SHT31;37911;51.526;11.536;2023-04-15T19:27:02;9.34;91.41
51878;SHT31;37911;51.526;11.536;2023-04-15T19:30:06;9.32;91.41